HomeShort term forecast

Short term forecast

Graphical weather forecast for the next 48 hours for Montreal:
Short term forecast
This weather forecast is automatically refreshed every 3 hours.

Hourly Experimental Forecast for the next 48 hours

Overall summary: Mostly cloudy throughout the day.

 Date & Hour   Temp   Feel   Baro   Hum   Speed & Bearing   Wind Gust   Precip.%   Precip.   Visibility   Cloud cover   Conditions 
 25/04/2019 - 01:00  7.0°C  7.0°C  1013.1 hPa  79%  4.7 km/h   9.3 km/h  89%  0.08 mm/h  16.1km  76%  Mostly Cloudy 
 25/04/2019 - 02:00  6.3°C  6.3°C  1013.3 hPa  80%  4.2 km/h   8.5 km/h  37%  0.28 mm/h  16.1km  77%  Mostly Cloudy 
 25/04/2019 - 03:00  5.6°C  5.6°C  1013.6 hPa  82%  4.6 km/h   7.8 km/h  3%  0.01 mm/h  16.1km  78%  Mostly Cloudy 
 25/04/2019 - 04:00  5.1°C  5.1°C  1013.7 hPa  83%  3.9 km/h   6.8 km/h  3%  0.01 mm/h  16.1km  74%  Mostly Cloudy 
 25/04/2019 - 05:00  4.6°C  4.6°C  1013.9 hPa  84%  4.3 km/h   6.3 km/h  3%  0.01 mm/h  16.1km  68%  Mostly Cloudy 
 25/04/2019 - 06:00  4.4°C  4.4°C  1014.2 hPa  85%  4.6 km/h   6.7 km/h  3%  0.03 mm/h  16.0km  74%  Mostly Cloudy 
 25/04/2019 - 07:00  4.6°C  3.5°C  1014.6 hPa  83%  5.3 km/h   7.0 km/h  2%  0.01 mm/h  14.9km  83%  Mostly Cloudy 
 25/04/2019 - 08:00  5.2°C  4.1°C  1014.9 hPa  81%  5.5 km/h   6.7 km/h  4%  0.04 mm/h  15.1km  79%  Mostly Cloudy 
 25/04/2019 - 09:00  6.1°C  5.4°C  1015.1 hPa  78%  4.9 km/h   5.3 km/h  2%  0.01 mm/h  16.1km  62%  Mostly Cloudy 
 25/04/2019 - 10:00  7.2°C  7.2°C  1015.1 hPa  75%  4.5 km/h   6.1 km/h  0%  --  16.1km  62%  Mostly Cloudy 
 25/04/2019 - 11:00  8.3°C  8.3°C  1015.0 hPa  72%  4.2 km/h   6.1 km/h  0%  --  16.1km  62%  Mostly Cloudy 
 25/04/2019 - 12:00  9.3°C  9.3°C  1014.6 hPa  68%  4.3 km/h   6.3 km/h  5%  0.01 mm/h  16.1km  63%  Mostly Cloudy 
 25/04/2019 - 13:00  10.7°C  10.7°C  1014.2 hPa  63%  4.9 km/h   7.6 km/h  0%  --  16.1km  55%  Partly Cloudy 
 25/04/2019 - 14:00  11.9°C  11.9°C  1013.8 hPa  57%  4.5 km/h   7.8 km/h  0%  --  16.1km  75%  Mostly Cloudy 
 25/04/2019 - 15:00  13.0°C  13.0°C  1013.3 hPa  54%  4.3 km/h   7.8 km/h  0%  --  16.1km  77%  Mostly Cloudy 
 25/04/2019 - 16:00  14.1°C  14.1°C  1013.0 hPa  50%  4.2 km/h   7.5 km/h  0%  --  16.1km  77%  Mostly Cloudy 
 25/04/2019 - 17:00  14.9°C  14.9°C  1012.7 hPa  49%  3.6 km/h   7.4 km/h  0%  --  16.1km  61%  Mostly Cloudy 
 25/04/2019 - 18:00  14.9°C  14.9°C  1012.5 hPa  50%  4.5 km/h   7.4 km/h  0%  --  16.1km  54%  Partly Cloudy 
 25/04/2019 - 19:00  14.2°C  14.2°C  1012.4 hPa  54%  5.3 km/h   7.5 km/h  0%  --  16.1km  66%  Mostly Cloudy 
 25/04/2019 - 20:00  13.2°C  13.2°C  1012.5 hPa  58%  6.0 km/h   8.0 km/h  0%  --  16.1km  60%  Mostly Cloudy 
 25/04/2019 - 21:00  12.4°C  12.4°C  1012.8 hPa  61%  7.1 km/h   9.2 km/h  0%  --  16.1km  42%  Partly Cloudy 
 25/04/2019 - 22:00  11.6°C  11.6°C  1012.8 hPa  63%  7.8 km/h   10.7 km/h  0%  --  16.1km  47%  Partly Cloudy 
 25/04/2019 - 23:00  10.9°C  10.9°C  1012.6 hPa  64%  8.3 km/h   12.2 km/h  0%  --  16.1km  46%  Partly Cloudy 
 26/04/2019 - 00:00  10.2°C  10.2°C  1012.3 hPa  66%  8.2 km/h   13.4 km/h  0%  --  16.1km  40%  Partly Cloudy 
 26/04/2019 - 01:00  9.5°C  8.5°C  1011.9 hPa  68%  7.7 km/h   14.4 km/h  0%  --  16.1km  51%  Partly Cloudy 
 26/04/2019 - 02:00  8.7°C  7.6°C  1011.4 hPa  70%  7.9 km/h   15.1 km/h  0%  --  16.1km  60%  Mostly Cloudy 
 26/04/2019 - 03:00  7.9°C  6.5°C  1010.8 hPa  72%  8.3 km/h   15.2 km/h  0%  --  16.1km  69%  Mostly Cloudy 
 26/04/2019 - 04:00  7.1°C  5.4°C  1010.1 hPa  75%  9.0 km/h   15.1 km/h  0%  --  16.1km  79%  Mostly Cloudy 
 26/04/2019 - 05:00  6.6°C  4.6°C  1009.3 hPa  78%  9.7 km/h   15.3 km/h  0%  --  16.1km  87%  Mostly Cloudy 
 26/04/2019 - 06:00  6.7°C  4.6°C  1008.8 hPa  77%  10.4 km/h   15.7 km/h  0%  --  16.1km  87%  Mostly Cloudy 
 26/04/2019 - 07:00  7.1°C  5.0°C  1008.4 hPa  76%  11.4 km/h   16.6 km/h  6%  0.01 mm/h  16.1km  96%  Overcast 
 26/04/2019 - 08:00  7.7°C  5.6°C  1007.9 hPa  76%  12.2 km/h   18.8 km/h  20%  0.04 mm/h  16.1km  100%  Overcast 
 26/04/2019 - 09:00  8.5°C  6.4°C  1007.3 hPa  78%  12.8 km/h   22.9 km/h  51%  0.19 mm/h  16.1km  100%  Overcast 
 26/04/2019 - 10:00  9.3°C  7.3°C  1006.5 hPa  81%  13.8 km/h   28.3 km/h  73%  0.67 mm/h  10.1km  100%  Light Rain 
 26/04/2019 - 11:00  10.2°C  10.2°C  1005.7 hPa  83%  14.9 km/h   34.0 km/h  79%  1.28 mm/h  4.9km  100%  Light Rain 
 26/04/2019 - 12:00  11.3°C  11.3°C  1004.6 hPa  80%  17.3 km/h   40.5 km/h  81%  1.62 mm/h  3.7km  100%  Rain 
 26/04/2019 - 13:00  12.0°C  12.0°C  1003.2 hPa  79%  21.3 km/h   47.4 km/h  83%  1.81 mm/h  4.6km  100%  Rain 
 26/04/2019 - 14:00  11.8°C  11.8°C  1001.9 hPa  81%  23.4 km/h   52.0 km/h  84%  1.90 mm/h  6.4km  100%  Rain 
 26/04/2019 - 15:00  11.2°C  11.2°C  1000.7 hPa  84%  23.4 km/h   51.8 km/h  85%  1.96 mm/h  9.3km  100%  Rain 
 26/04/2019 - 16:00  10.6°C  10.6°C  999.3 hPa  87%  22.5 km/h   49.0 km/h  88%  1.98 mm/h  13.1km  100%  Rain 
 26/04/2019 - 17:00  10.5°C  10.5°C  998.4 hPa  88%  21.4 km/h   47.4 km/h  89%  2.70 mm/h  15.6km  100%  Rain 
 26/04/2019 - 18:00  10.3°C  10.3°C  997.5 hPa  88%  21.2 km/h   49.1 km/h  89%  2.21 mm/h  15.1km  100%  Rain 
 26/04/2019 - 19:00  10.4°C  10.4°C  996.6 hPa  88%  21.0 km/h   52.1 km/h  89%  2.03 mm/h  13.0km  100%  Rain 
 26/04/2019 - 20:00  10.5°C  10.5°C  995.9 hPa  87%  20.1 km/h   53.8 km/h  89%  2.03 mm/h  11.2km  100%  Rain 
 26/04/2019 - 21:00  10.6°C  10.6°C  995.2 hPa  86%  18.4 km/h   53.5 km/h  86%  1.77 mm/h  10.6km  100%  Rain 
 26/04/2019 - 22:00  10.7°C  10.7°C  994.4 hPa  85%  15.9 km/h   51.9 km/h  82%  1.29 mm/h  10.3km  100%  Light Rain 
 26/04/2019 - 23:00  10.8°C  10.8°C  993.7 hPa  84%  14.8 km/h   49.1 km/h  80%  1.09 mm/h  9.7km  100%  Light Rain 
 27/04/2019 - 00:00  10.4°C  10.4°C  993.1 hPa  87%  14.6 km/h   44.2 km/h  82%  1.37 mm/h  8.2km  100%  Rain 
Test

 

Past weather and reports

Past weatherFind in this section the past weather conditions, weather archive, graphics, reports and statistics.

Current conditions

Current weather condition for MontrealAll you need to know about the current weather conditions for Montreal. Weather data is updated every 10 minutes.

Weather forecast

Current Montreal weatherSince 2004, celinium.com website has provided accurate weather forecast for Montreal's island.